Terminal Aerodrome Forecast
Issued by NWS Jackson, MS

Home | Current Version | Previous Version | Text Only | Print | Product List | Glossary On
Versions: 1 2 3 4 5 6 7 8 9 10 11 12 13 14
000
FTUS44 KJAN 010500
TAFMEI
TAF
KMEI 010538Z 0106/0206 16004KT P6SM BKN120
     FM011200 15008KT P6SM -SHRA SCT015 BKN025
     FM020400 30014G24KT P6SM BKN030=

USA.gov is the U.S. government's official web portal to all federal, state and local government web resources and services.